KPKV

Calhoun County Airport

Port Lavaca, Texas, USA
METAR KPKV 170000Z AUTO 00000KT 7SM CLR 16/07 A3027 RMK AO2 T01560074
Observed Flight Rules
Dec-17 @ 00:00 UTC (29 minutes ago) Visual Flight Rules
Visibility Clouds
7 miles
  • Clear skies
Temperatures Readings
Current 16°C / 61°F
Dewpoint 7°C / 45°F
Humidity 55%
Altimeter 30.27" Hg
Pressure 1025 hPa
Elevation 9
METAR KPKV 170000Z AUTO 00000KT 7SM CLR 16/07 A3027 RMK AO2 T01560074
Observed Flight Rules
Dec-17 @ 00:00 UTC
(29 minutes ago)
VFR
Clouds
  • Clear skies
Temperature Dewpoint
16°C / 61°F 7°C / 45°F
Humidity Altimeter Pressure
55% 30.27" Hg 1025 hPa